createdAt,value
2023-01-26T00:00:29.239Z,13.23
2023-01-26T00:02:01.633Z,12.50
2023-01-26T00:03:36.724Z,12.15
2023-01-26T00:05:01.950Z,11.95
2023-01-26T00:07:59.323Z,11.27
2023-01-26T00:09:16.045Z,11.82
2023-01-26T00:10:39.515Z,12.68
2023-01-26T00:12:14.031Z,11.57
2023-01-26T00:13:47.084Z,11.23
2023-01-26T00:15:17.322Z,12.48
2023-01-26T00:16:49.418Z,11.50
2023-01-26T00:18:09.511Z,11.88
2023-01-26T00:19:42.594Z,11.77
2023-01-26T00:22:54.668Z,12.50
2023-01-26T00:24:05.857Z,12.20
2023-01-26T00:25:21.753Z,11.90
2023-01-26T00:26:51.085Z,11.50
2023-01-26T00:28:05.143Z,11.95
2023-01-26T00:29:27.183Z,11.82
2023-01-26T00:31:14.720Z,11.50
2023-01-26T00:32:22.068Z,12.63
2023-01-26T00:33:57.091Z,12.20
2023-01-26T00:35:10.505Z,11.15
2023-01-26T00:36:19.067Z,12.32
2023-01-26T00:37:48.227Z,12.55
2023-01-26T00:39:00.155Z,11.73
2023-01-26T00:40:13.568Z,13.27
2023-01-26T00:41:39.864Z,13.05
2023-01-26T00:42:49.376Z,11.73
2023-01-26T00:44:13.174Z,12.15
2023-01-26T00:45:28.560Z,12.10
2023-01-26T00:48:05.333Z,12.40
2023-01-26T00:49:19.795Z,12.75
2023-01-26T00:50:36.773Z,11.93
2023-01-26T00:52:03.701Z,11.63
2023-01-26T00:53:17.625Z,11.65
2023-01-26T00:54:32.968Z,12.52
2023-01-26T00:55:50.700Z,12.32
2023-01-26T00:58:10.717Z,12.32
2023-01-26T00:59:39.998Z,11.68
2023-01-26T01:01:35.023Z,11.38
2023-01-26T01:02:46.419Z,12.07
2023-01-26T01:03:57.937Z,12.65
2023-01-26T01:05:11.381Z,13.13
2023-01-26T01:07:09.685Z,12.98
2023-01-26T01:08:22.936Z,12.90
2023-01-26T01:09:37.727Z,11.68
2023-01-26T01:10:49.877Z,11.02
2023-01-26T01:11:55.453Z,11.55
2023-01-26T01:13:11.208Z,10.73
2023-01-26T01:16:33.938Z,10.40
2023-01-26T01:17:41.784Z,10.65
2023-01-26T01:19:00.160Z,10.80
2023-01-26T01:20:20.309Z,9.75
2023-01-26T01:21:46.329Z,9.90
2023-01-26T01:23:07.110Z,9.60
2023-01-26T01:24:24.429Z,10.75
2023-01-26T01:25:36.485Z,10.93
2023-01-26T01:26:45.778Z,9.55
2023-01-26T01:27:53.980Z,10.27
2023-01-26T01:29:42.409Z,8.93
2023-01-26T01:31:10.770Z,10.90
2023-01-26T01:32:18.960Z,10.68
2023-01-26T01:33:30.831Z,9.85
2023-01-26T01:34:58.135Z,10.38
2023-01-26T01:36:12.218Z,10.07
2023-01-26T01:37:22.316Z,9.63
2023-01-26T01:38:36.099Z,10.90
2023-01-26T01:39:42.437Z,11.13
2023-01-26T01:40:52.776Z,11.23
2023-01-26T01:46:45.154Z,9.93
2023-01-26T01:48:00.561Z,10.43
2023-01-26T01:49:35.146Z,10.45
2023-01-26T01:50:52.794Z,10.07
2023-01-26T01:52:12.789Z,10.43
2023-01-26T01:53:27.193Z,9.93
2023-01-26T01:54:49.452Z,10.60
2023-01-26T01:56:15.945Z,10.52
2023-01-26T01:57:31.283Z,10.35
2023-01-26T01:58:43.608Z,10.70
2023-01-26T01:59:59.265Z,10.32
2023-01-26T02:01:19.732Z,11.02
2023-01-26T02:02:40.203Z,10.40
2023-01-26T02:04:00.461Z,11.00
2023-01-26T02:05:37.905Z,10.80
2023-01-26T02:06:59.210Z,11.48
2023-01-26T02:08:16.199Z,11.30
2023-01-26T02:09:59.399Z,9.98
2023-01-26T02:11:20.753Z,10.55
2023-01-26T02:12:31.103Z,10.77
2023-01-26T02:13:39.788Z,10.25
2023-01-26T02:15:01.402Z,10.68
2023-01-26T02:16:11.319Z,10.80
2023-01-26T02:17:30.517Z,10.27
2023-01-26T02:18:43.867Z,11.57
2023-01-26T02:22:15.757Z,10.60
2023-01-26T02:24:01.315Z,11.38
2023-01-26T02:26:12.873Z,10.10
2023-01-26T02:27:42.279Z,9.68
2023-01-26T02:29:17.535Z,10.05
2023-01-26T02:30:31.277Z,9.88
2023-01-26T02:31:43.197Z,10.77
2023-01-26T02:33:18.271Z,10.65
2023-01-26T02:37:03.141Z,10.07
2023-01-26T02:38:12.538Z,10.20
2023-01-26T02:41:47.179Z,9.80
2023-01-26T02:42:59.291Z,11.02
2023-01-26T02:44:54.083Z,10.00
2023-01-26T02:46:00.029Z,10.25
2023-01-26T02:47:27.581Z,10.02
2023-01-26T02:49:18.046Z,10.57
2023-01-26T02:50:37.965Z,10.70
2023-01-26T02:53:24.474Z,11.52
2023-01-26T02:56:40.301Z,10.32
2023-01-26T02:57:54.803Z,10.60
2023-01-26T02:59:01.276Z,11.48
2023-01-26T03:00:08.326Z,11.52
2023-01-26T03:01:12.207Z,11.32
2023-01-26T03:02:33.495Z,10.75
2023-01-26T03:03:43.034Z,11.38
2023-01-26T03:04:51.387Z,11.00
2023-01-26T03:06:09.915Z,12.40
2023-01-26T03:07:16.460Z,11.98
2023-01-26T03:08:26.084Z,10.98
2023-01-26T03:09:32.046Z,11.38
2023-01-26T03:10:37.998Z,10.90
2023-01-26T03:11:50.538Z,11.27
2023-01-26T03:13:15.928Z,11.23
2023-01-26T03:14:31.667Z,10.98
2023-01-26T03:16:08.228Z,12.02
2023-01-26T03:17:37.122Z,11.20
2023-01-26T03:19:04.667Z,12.93
2023-01-26T03:20:54.327Z,11.20
2023-01-26T03:22:27.183Z,11.32
2023-01-26T03:23:56.465Z,11.88
2023-01-26T03:25:23.829Z,12.13
2023-01-26T03:26:54.783Z,11.80
2023-01-26T03:28:06.030Z,11.25
2023-01-26T03:29:18.931Z,11.35
2023-01-26T03:30:35.380Z,11.43
2023-01-26T03:31:40.448Z,11.57
2023-01-26T03:32:49.428Z,12.10
2023-01-26T03:34:09.332Z,11.18
2023-01-26T03:35:17.381Z,11.30
2023-01-26T03:36:28.831Z,11.73
2023-01-26T03:37:50.999Z,12.35
2023-01-26T03:39:12.325Z,11.23
2023-01-26T03:40:37.186Z,12.00
2023-01-26T03:42:02.838Z,10.50
2023-01-26T03:43:32.564Z,11.32
2023-01-26T03:45:19.283Z,11.77
2023-01-26T03:46:52.794Z,12.00
2023-01-26T03:48:31.103Z,13.27
2023-01-26T03:50:01.546Z,11.27
2023-01-26T03:51:27.790Z,11.50
2023-01-26T03:53:02.888Z,10.80
2023-01-26T03:54:37.901Z,12.00
2023-01-26T03:56:16.498Z,11.65
2023-01-26T03:57:26.615Z,11.50
2023-01-26T03:58:37.543Z,12.40
2023-01-26T03:59:48.105Z,11.95
2023-01-26T04:01:01.312Z,11.05
2023-01-26T04:02:32.002Z,12.23
2023-01-26T04:04:00.678Z,11.70
2023-01-26T04:05:36.644Z,11.48
2023-01-26T04:07:05.230Z,11.02
2023-01-26T04:08:36.817Z,11.02
2023-01-26T04:09:43.102Z,12.80
2023-01-26T04:10:48.060Z,11.93
2023-01-26T04:12:01.684Z,13.18
2023-01-26T04:13:28.319Z,11.40
2023-01-26T04:14:58.856Z,12.15
2023-01-26T04:16:32.727Z,11.65
2023-01-26T04:17:56.686Z,11.38
2023-01-26T04:19:18.830Z,11.90
2023-01-26T04:20:51.120Z,12.52
2023-01-26T04:21:59.740Z,11.52
2023-01-26T04:23:11.329Z,10.55
2023-01-26T04:24:27.458Z,12.25
2023-01-26T04:25:33.352Z,12.15
2023-01-26T04:26:37.701Z,12.93
2023-01-26T04:27:48.355Z,12.38
2023-01-26T04:28:59.009Z,12.35
2023-01-26T04:30:15.002Z,12.77
2023-01-26T04:31:28.732Z,13.82
2023-01-26T04:32:38.520Z,12.73
2023-01-26T04:33:46.503Z,12.20
2023-01-26T04:36:08.391Z,12.32
2023-01-26T04:37:19.885Z,12.20
2023-01-26T04:38:27.461Z,12.52
2023-01-26T04:39:38.670Z,12.70
2023-01-26T04:41:03.327Z,13.48
2023-01-26T04:42:33.963Z,10.77
2023-01-26T04:44:15.087Z,12.65
2023-01-26T04:45:25.924Z,12.57
2023-01-26T04:46:34.337Z,12.75
2023-01-26T04:47:46.942Z,12.75
2023-01-26T04:49:29.485Z,11.75
2023-01-26T04:50:36.421Z,12.73
2023-01-26T04:51:44.264Z,13.20
2023-01-26T04:52:51.118Z,12.60
2023-01-26T04:54:13.247Z,13.00
2023-01-26T04:55:21.313Z,13.20
2023-01-26T04:56:30.501Z,12.07
2023-01-26T04:57:36.122Z,13.27
2023-01-26T04:58:41.983Z,12.95
2023-01-26T04:59:49.150Z,11.95
2023-01-26T05:02:02.202Z,12.07
2023-01-26T05:03:10.126Z,12.07
2023-01-26T05:04:14.062Z,12.65
2023-01-26T05:05:27.505Z,12.05
2023-01-26T05:06:36.874Z,12.45
2023-01-26T05:07:51.079Z,11.45
2023-01-26T05:09:00.182Z,13.65
2023-01-26T05:10:08.873Z,12.70
2023-01-26T05:11:38.216Z,12.05
2023-01-26T05:13:03.485Z,12.40
2023-01-26T05:14:26.115Z,12.98
2023-01-26T05:16:04.838Z,12.98
2023-01-26T05:17:29.808Z,12.80
2023-01-26T05:19:07.223Z,12.50
2023-01-26T05:20:26.644Z,12.10
2023-01-26T05:21:58.261Z,12.13
2023-01-26T05:23:02.755Z,13.40
2023-01-26T05:24:44.507Z,12.15
2023-01-26T05:41:24.786Z,11.13
2023-01-26T20:23:13.288Z,12.23
2023-01-26T20:25:33.395Z,13.00
2023-01-26T20:26:53.174Z,11.05
2023-01-26T20:28:02.151Z,12.30
2023-01-26T20:29:48.708Z,11.80
2023-01-26T20:31:24.192Z,13.32
2023-01-26T20:32:39.459Z,11.52
2023-01-26T20:42:49.035Z,12.45
2023-01-26T20:44:02.220Z,12.85
2023-01-26T20:45:23.853Z,13.15
2023-01-26T20:47:03.303Z,12.40
2023-01-26T20:49:33.302Z,11.63
2023-01-26T20:53:19.385Z,12.05
2023-01-26T20:59:34.329Z,11.82
2023-01-26T21:09:12.794Z,9.88
2023-01-26T21:10:43.172Z,11.27
2023-01-26T21:12:03.332Z,11.68
2023-01-26T21:13:22.545Z,13.10
2023-01-26T21:14:28.447Z,11.50
2023-01-26T21:15:35.962Z,12.05
2023-01-26T21:16:52.307Z,11.40
2023-01-26T21:18:10.513Z,10.35
2023-01-26T21:19:50.047Z,11.30
2023-01-26T21:21:22.036Z,11.80
2023-01-26T21:22:51.491Z,12.13
2023-01-26T21:23:57.920Z,11.82
2023-01-26T21:29:28.251Z,11.48
2023-01-26T21:31:10.128Z,11.00
2023-01-26T21:34:11.824Z,10.75
2023-01-26T22:05:29.145Z,10.27
2023-01-26T22:08:44.995Z,10.23
2023-01-26T22:10:38.692Z,10.20
2023-01-26T22:12:39.246Z,10.25
2023-01-26T22:17:40.289Z,9.63
2023-01-26T22:18:54.078Z,10.65
2023-01-26T22:55:04.899Z,9.38
2023-01-26T22:58:18.593Z,9.52
2023-01-26T23:05:57.736Z,10.10
2023-01-26T23:07:19.281Z,10.13
2023-01-26T23:15:47.216Z,9.68
2023-01-26T23:28:47.029Z,9.68
2023-01-26T23:39:39.037Z,9.85
2023-01-26T23:40:49.888Z,9.55
2023-01-26T23:42:21.554Z,9.43
2023-01-26T23:43:33.104Z,9.50
2023-01-26T23:44:52.073Z,9.95
2023-01-26T23:45:59.372Z,10.05
2023-01-26T23:47:08.604Z,11.02
2023-01-26T23:48:44.317Z,10.48
2023-01-26T23:49:54.197Z,10.82
2023-01-26T23:51:15.885Z,10.82
2023-01-26T23:52:44.750Z,10.00
2023-01-26T23:54:05.169Z,10.27
2023-01-26T23:55:22.375Z,10.48
2023-01-26T23:56:34.036Z,9.82
2023-01-26T23:57:48.380Z,10.95
2023-01-26T23:58:56.994Z,9.70
